Hauptseite
METAR-TAF:

METAR-TAF

Flughäfen :

Flugplatz Buochs

Buochs, Schweiz

Breite: 46-58-28N, Länge: 8-23-49E, Höhe: 449 m

Beobachtung

Neuester Wetterbericht von vor 12 Minuten, um 19:20 UTC
Wind 2 kt aus West
Temperatur 10°C
Luftfeuchtigkeit 87%
Luftdruck 1024 hPa
Sichtweite: 5000 m
Durchbrochene Bewölkung in der Höhe von 2300 ft

METAR: LSZC 211920Z AUTO 26002KT 5000 BKN023 10/08 Q1024

Zeit: 21:32 (19:32 UTC)


TAF: fehlend

Wetterbeobachtungen und Prognosen von mehr als 4000 Flughäfen (METAR und TAF Bericht).

Die verfügbaren Stationen werden durch gelbe und rote Markierungen auf der Karte dargestellt.

Führen Sie die Maus auf sie, um den Namen der Station zu sehen.

Darauf klicken, um die Beobachtung von Wetterbeobachtungen und Prognosen zu sehen.

Um die Karte zu ändern : klicken Sie auf den grünen Tasten mit einem schwarzen Kreuz Zum Vergrößern, auf den grünen Button mit einem Gedankenstrich zu verkleinern, oder auf die grünen Pfeile für benachbarte Karten.


METAR-TAF: